sensor_id;sensor_type;location;lat;lon;timestamp;pressure;altitude;pressure_sealevel;temperature;humidity
77939;BME280;67136;47.546;21.630;2023-09-19T00:01:43;99982.91;;;19.88;71.76
77939;BME280;67136;47.546;21.630;2023-09-19T00:04:48;99978.78;;;19.78;72.36
77939;BME280;67136;47.546;21.630;2023-09-19T00:07:53;99970.56;;;19.73;73.30
77939;BME280;67136;47.546;21.630;2023-09-19T00:11:01;99974.62;;;19.69;73.54
77939;BME280;67136;47.546;21.630;2023-09-19T00:14:05;99965.41;;;19.65;73.90
77939;BME280;67136;47.546;21.630;2023-09-19T00:17:10;99965.59;;;19.64;74.16
77939;BME280;67136;47.546;21.630;2023-09-19T00:20:14;99964.97;;;19.62;74.09
77939;BME280;67136;47.546;21.630;2023-09-19T00:23:20;99961.88;;;19.58;74.33
77939;BME280;67136;47.546;21.630;2023-09-19T00:26:23;99959.62;;;19.55;75.18
77939;BME280;67136;47.546;21.630;2023-09-19T00:29:26;99964.69;;;19.50;75.11
77939;BME280;67136;47.546;21.630;2023-09-19T00:32:34;99956.91;;;19.49;75.32
77939;BME280;67136;47.546;21.630;2023-09-19T00:35:37;99943.22;;;19.45;75.46
77939;BME280;67136;47.546;21.630;2023-09-19T00:38:39;99939.94;;;19.43;75.51
77939;BME280;67136;47.546;21.630;2023-09-19T00:41:42;99940.72;;;19.44;75.55
77939;BME280;67136;47.546;21.630;2023-09-19T00:44:47;99934.63;;;19.43;75.40
77939;BME280;67136;47.546;21.630;2023-09-19T00:47:54;99926.03;;;19.41;75.49
77939;BME280;67136;47.546;21.630;2023-09-19T00:51:04;99925.00;;;19.42;75.41
77939;BME280;67136;47.546;21.630;2023-09-19T00:54:07;99918.72;;;19.43;75.14
77939;BME280;67136;47.546;21.630;2023-09-19T00:57:10;99921.75;;;19.40;75.19
77939;BME280;67136;47.546;21.630;2023-09-19T01:00:13;99912.16;;;19.39;75.04
77939;BME280;67136;47.546;21.630;2023-09-19T01:03:17;99908.87;;;19.37;75.32
77939;BME280;67136;47.546;21.630;2023-09-19T01:06:21;99905.59;;;19.35;75.11
77939;BME280;67136;47.546;21.630;2023-09-19T01:09:24;99894.16;;;19.35;74.95
77939;BME280;67136;47.546;21.630;2023-09-19T01:16:22;99891.38;;;19.43;73.89
77939;BME280;67136;47.546;21.630;2023-09-19T01:26:39;99881.13;;;19.67;71.23
77939;BME280;67136;47.546;21.630;2023-09-19T01:29:48;99868.97;;;19.79;69.78
77939;BME280;67136;47.546;21.630;2023-09-19T01:32:52;99870.81;;;19.79;69.73
77939;BME280;67136;47.546;21.630;2023-09-19T01:35:54;99868.38;;;19.84;69.15
77939;BME280;67136;47.546;21.630;2023-09-19T01:39:04;99864.50;;;19.87;68.73
77939;BME280;67136;47.546;21.630;2023-09-19T01:42:35;99873.34;;;19.94;68.23
77939;BME280;67136;47.546;21.630;2023-09-19T01:46:05;99859.00;;;19.88;69.01
77939;BME280;67136;47.546;21.630;2023-09-19T01:52:31;99844.59;;;19.69;70.75
77939;BME280;67136;47.546;21.630;2023-09-19T01:55:43;99847.25;;;19.69;70.58
77939;BME280;67136;47.546;21.630;2023-09-19T01:58:54;99842.16;;;19.68;70.38
77939;BME280;67136;47.546;21.630;2023-09-19T02:01:59;99847.53;;;19.81;69.49
77939;BME280;67136;47.546;21.630;2023-09-19T02:05:04;99836.47;;;19.77;69.97
77939;BME280;67136;47.546;21.630;2023-09-19T02:08:07;99836.03;;;19.67;70.91
77939;BME280;67136;47.546;21.630;2023-09-19T02:11:12;99827.84;;;19.62;70.91
77939;BME280;67136;47.546;21.630;2023-09-19T02:14:15;99840.53;;;19.67;70.36
77939;BME280;67136;47.546;21.630;2023-09-19T02:17:18;99823.38;;;19.69;69.80
77939;BME280;67136;47.546;21.630;2023-09-19T02:20:22;99828.69;;;19.69;69.81
77939;BME280;67136;47.546;21.630;2023-09-19T02:23:24;99822.62;;;19.75;69.08
77939;BME280;67136;47.546;21.630;2023-09-19T02:26:27;99815.84;;;19.73;69.29
77939;BME280;67136;47.546;21.630;2023-09-19T02:29:31;99813.62;;;19.76;69.19
77939;BME280;67136;47.546;21.630;2023-09-19T02:32:33;99811.59;;;19.78;68.66
77939;BME280;67136;47.546;21.630;2023-09-19T02:35:41;99811.22;;;19.82;68.24
77939;BME280;67136;47.546;21.630;2023-09-19T02:38:45;99803.87;;;19.84;67.90
77939;BME280;67136;47.546;21.630;2023-09-19T02:41:48;99805.50;;;19.85;67.89
77939;BME280;67136;47.546;21.630;2023-09-19T02:44:50;99813.06;;;19.88;67.44
77939;BME280;67136;47.546;21.630;2023-09-19T02:47:53;99804.28;;;19.81;67.92
77939;BME280;67136;47.546;21.630;2023-09-19T02:50:57;99797.34;;;19.86;67.49
77939;BME280;67136;47.546;21.630;2023-09-19T02:54:00;99801.84;;;19.86;67.65
77939;BME280;67136;47.546;21.630;2023-09-19T02:57:03;99800.59;;;19.82;68.07
77939;BME280;67136;47.546;21.630;2023-09-19T03:00:09;99800.16;;;19.78;68.05
77939;BME280;67136;47.546;21.630;2023-09-19T03:03:13;99790.38;;;19.78;67.95
77939;BME280;67136;47.546;21.630;2023-09-19T03:06:16;99792.41;;;19.76;68.01
77939;BME280;67136;47.546;21.630;2023-09-19T03:09:19;99787.31;;;19.75;68.01
77939;BME280;67136;47.546;21.630;2023-09-19T03:12:23;99793.63;;;19.74;68.08
77939;BME280;67136;47.546;21.630;2023-09-19T03:15:26;99792.41;;;19.76;67.79
77939;BME280;67136;47.546;21.630;2023-09-19T03:18:29;99793.44;;;19.75;67.80
77939;BME280;67136;47.546;21.630;2023-09-19T03:21:31;99796.88;;;19.76;67.71
77939;BME280;67136;47.546;21.630;2023-09-19T03:24:34;99801.00;;;19.78;67.49
77939;BME280;67136;47.546;21.630;2023-09-19T03:27:40;99796.69;;;19.77;67.47
77939;BME280;67136;47.546;21.630;2023-09-19T03:30:43;99807.31;;;19.77;67.33
77939;BME280;67136;47.546;21.630;2023-09-19T03:33:46;99801.00;;;19.78;67.14
77939;BME280;67136;47.546;21.630;2023-09-19T03:36:49;99791.59;;;19.76;67.30
77939;BME280;67136;47.546;21.630;2023-09-19T03:39:51;99786.69;;;19.79;66.78
77939;BME280;67136;47.546;21.630;2023-09-19T03:42:54;99788.34;;;19.74;67.08
77939;BME280;67136;47.546;21.630;2023-09-19T03:46:01;99790.97;;;19.74;67.09
77939;BME280;67136;47.546;21.630;2023-09-19T03:49:06;99789.09;;;19.68;67.37
77939;BME280;67136;47.546;21.630;2023-09-19T03:52:08;99790.31;;;19.65;67.42
77939;BME280;67136;47.546;21.630;2023-09-19T03:55:11;99790.31;;;19.65;67.09
77939;BME280;67136;47.546;21.630;2023-09-19T03:58:15;99791.50;;;19.56;67.65
77939;BME280;67136;47.546;21.630;2023-09-19T04:01:17;99789.06;;;19.61;66.76
77939;BME280;67136;47.546;21.630;2023-09-19T04:04:22;99796.41;;;19.59;67.35
77939;BME280;67136;47.546;21.630;2023-09-19T04:07:27;99791.88;;;19.53;67.47
77939;BME280;67136;47.546;21.630;2023-09-19T04:10:31;99789.50;;;19.65;66.73
77939;BME280;67136;47.546;21.630;2023-09-19T04:13:34;99789.66;;;19.57;66.88
77939;BME280;67136;47.546;21.630;2023-09-19T04:16:38;99796.75;;;19.50;67.04
77939;BME280;67136;47.546;21.630;2023-09-19T04:19:41;99800.00;;;19.45;67.19
77939;BME280;67136;47.546;21.630;2023-09-19T04:22:45;99794.59;;;19.32;67.85
77939;BME280;67136;47.546;21.630;2023-09-19T04:25:48;99794.72;;;19.45;67.36
77939;BME280;67136;47.546;21.630;2023-09-19T04:28:51;99793.44;;;19.41;67.32
77939;BME280;67136;47.546;21.630;2023-09-19T04:31:54;99802.03;;;19.43;67.30
77939;BME280;67136;47.546;21.630;2023-09-19T04:34:56;99800.81;;;19.46;67.27
77939;BME280;67136;47.546;21.630;2023-09-19T04:38:02;99803.66;;;19.44;67.59
77939;BME280;67136;47.546;21.630;2023-09-19T04:41:06;99801.63;;;19.46;67.46
77939;BME280;67136;47.546;21.630;2023-09-19T04:44:08;99794.31;;;19.48;67.46
77939;BME280;67136;47.546;21.630;2023-09-19T04:47:11;99794.72;;;19.45;67.81
77939;BME280;67136;47.546;21.630;2023-09-19T04:50:14;99795.69;;;19.44;67.67
77939;BME280;67136;47.546;21.630;2023-09-19T04:53:18;99792.22;;;19.44;67.83
77939;BME280;67136;47.546;21.630;2023-09-19T04:56:22;99797.59;;;19.50;67.52
77939;BME280;67136;47.546;21.630;2023-09-19T04:59:26;99797.53;;;19.44;67.93
77939;BME280;67136;47.546;21.630;2023-09-19T05:02:30;99800.19;;;19.44;67.79
77939;BME280;67136;47.546;21.630;2023-09-19T05:05:33;99804.88;;;19.42;68.22
77939;BME280;67136;47.546;21.630;2023-09-19T05:08:37;99817.31;;;19.41;68.22
77939;BME280;67136;47.546;21.630;2023-09-19T05:11:41;99825.28;;;19.41;68.36
77939;BME280;67136;47.546;21.630;2023-09-19T05:14:43;99820.00;;;19.48;68.38
77939;BME280;67136;47.546;21.630;2023-09-19T05:17:50;99820.03;;;19.54;68.24
77939;BME280;67136;47.546;21.630;2023-09-19T05:20:58;99826.22;;;19.61;68.23
77939;BME280;67136;47.546;21.630;2023-09-19T05:24:00;99824.63;;;19.67;67.77
77939;BME280;67136;47.546;21.630;2023-09-19T05:27:03;99818.09;;;19.69;67.86
77939;BME280;67136;47.546;21.630;2023-09-19T05:30:07;99817.69;;;19.72;67.72
77939;BME280;67136;47.546;21.630;2023-09-19T05:33:10;99821.59;;;19.76;67.32
77939;BME280;67136;47.546;21.630;2023-09-19T05:36:13;99817.91;;;19.77;67.35
77939;BME280;67136;47.546;21.630;2023-09-19T05:39:18;99807.72;;;19.81;67.36
77939;BME280;67136;47.546;21.630;2023-09-19T05:42:20;99810.59;;;19.86;66.89
77939;BME280;67136;47.546;21.630;2023-09-19T05:45:23;99811.06;;;19.96;67.07
77939;BME280;67136;47.546;21.630;2023-09-19T05:48:26;99806.00;;;20.08;66.38
77939;BME280;67136;47.546;21.630;2023-09-19T05:51:29;99807.44;;;20.04;66.51
77939;BME280;67136;47.546;21.630;2023-09-19T05:54:32;99799.53;;;20.17;65.93
77939;BME280;67136;47.546;21.630;2023-09-19T05:57:36;99806.00;;;20.08;66.45
77939;BME280;67136;47.546;21.630;2023-09-19T06:00:42;99803.56;;;20.13;66.28
77939;BME280;67136;47.546;21.630;2023-09-19T06:03:47;99805.03;;;20.15;66.38
77939;BME280;67136;47.546;21.630;2023-09-19T06:06:50;99801.56;;;20.21;66.18
77939;BME280;67136;47.546;21.630;2023-09-19T06:09:53;99799.34;;;20.25;65.99
77939;BME280;67136;47.546;21.630;2023-09-19T06:12:56;99804.88;;;20.30;65.74
77939;BME280;67136;47.546;21.630;2023-09-19T06:16:01;99798.78;;;20.42;65.39
77939;BME280;67136;47.546;21.630;2023-09-19T06:19:07;99807.56;;;20.43;65.42
77939;BME280;67136;47.546;21.630;2023-09-19T06:22:11;99805.56;;;20.58;65.07
77939;BME280;67136;47.546;21.630;2023-09-19T06:25:17;99813.13;;;20.61;64.65
77939;BME280;67136;47.546;21.630;2023-09-19T06:28:23;99809.63;;;20.67;64.61
77939;BME280;67136;47.546;21.630;2023-09-19T06:31:26;99808.22;;;20.58;65.00
77939;BME280;67136;47.546;21.630;2023-09-19T06:34:30;99810.87;;;20.58;64.85
77939;BME280;67136;47.546;21.630;2023-09-19T06:37:32;99803.31;;;20.87;64.28
77939;BME280;67136;47.546;21.630;2023-09-19T06:40:37;99801.72;;;21.06;63.78
77939;BME280;67136;47.546;21.630;2023-09-19T06:43:39;99801.69;;;21.26;63.02
77939;BME280;67136;47.546;21.630;2023-09-19T06:46:43;99808.16;;;21.56;61.94
77939;BME280;67136;47.546;21.630;2023-09-19T06:49:48;99826.78;;;21.62;62.16
77939;BME280;67136;47.546;21.630;2023-09-19T06:52:53;99804.09;;;21.53;62.01
77939;BME280;67136;47.546;21.630;2023-09-19T06:55:58;99811.81;;;21.87;61.73
77939;BME280;67136;47.546;21.630;2023-09-19T06:59:01;99819.59;;;21.82;61.31
77939;BME280;67136;47.546;21.630;2023-09-19T07:02:05;99815.09;;;21.70;61.69
77939;BME280;67136;47.546;21.630;2023-09-19T07:05:08;99814.69;;;21.79;61.96
77939;BME280;67136;47.546;21.630;2023-09-19T07:08:11;99809.72;;;21.89;61.79
77939;BME280;67136;47.546;21.630;2023-09-19T07:11:15;99817.16;;;21.61;62.94
77939;BME280;67136;47.546;21.630;2023-09-19T07:14:18;99821.28;;;21.64;63.03
77939;BME280;67136;47.546;21.630;2023-09-19T07:17:21;99820.22;;;21.71;63.08
77939;BME280;67136;47.546;21.630;2023-09-19T07:20:24;99831.66;;;22.36;61.34
77939;BME280;67136;47.546;21.630;2023-09-19T07:23:32;99823.91;;;22.28;61.23
77939;BME280;67136;47.546;21.630;2023-09-19T07:26:37;99830.09;;;22.22;62.24
77939;BME280;67136;47.546;21.630;2023-09-19T07:29:40;99825.47;;;22.42;61.67
77939;BME280;67136;47.546;21.630;2023-09-19T07:32:42;99830.34;;;22.45;61.92
77939;BME280;67136;47.546;21.630;2023-09-19T07:35:48;99829.03;;;22.29;63.02
77939;BME280;67136;47.546;21.630;2023-09-19T07:38:51;99841.09;;;22.32;63.00
77939;BME280;67136;47.546;21.630;2023-09-19T07:41:54;99822.31;;;22.20;63.81
77939;BME280;67136;47.546;21.630;2023-09-19T07:44:56;99831.34;;;22.19;64.41
77939;BME280;67136;47.546;21.630;2023-09-19T07:47:59;99826.06;;;22.44;63.85
77939;BME280;67136;47.546;21.630;2023-09-19T07:51:08;99831.13;;;22.58;63.46
77939;BME280;67136;47.546;21.630;2023-09-19T07:54:11;99840.84;;;21.95;65.63
77939;BME280;67136;47.546;21.630;2023-09-19T07:57:13;99824.53;;;22.23;65.37
77939;BME280;67136;47.546;21.630;2023-09-19T08:00:17;99834.50;;;22.41;65.09
77939;BME280;67136;47.546;21.630;2023-09-19T08:03:20;99831.63;;;21.98;66.91
77939;BME280;67136;47.546;21.630;2023-09-19T08:06:23;99830.63;;;21.92;67.19
77939;BME280;67136;47.546;21.630;2023-09-19T08:09:26;99825.91;;;21.94;67.50
77939;BME280;67136;47.546;21.630;2023-09-19T08:12:30;99833.47;;;21.97;67.73
77939;BME280;67136;47.546;21.630;2023-09-19T08:15:33;99844.19;;;22.29;66.90
77939;BME280;67136;47.546;21.630;2023-09-19T08:18:37;99843.22;;;22.16;67.33
77939;BME280;67136;47.546;21.630;2023-09-19T08:21:43;99843.28;;;22.03;68.05
77939;BME280;67136;47.546;21.630;2023-09-19T08:24:49;99844.50;;;22.07;68.11
77939;BME280;67136;47.546;21.630;2023-09-19T08:27:52;99839.53;;;22.17;68.19
77939;BME280;67136;47.546;21.630;2023-09-19T08:30:54;99841.69;;;21.89;68.95
77939;BME280;67136;47.546;21.630;2023-09-19T08:33:57;99858.47;;;21.96;69.28
77939;BME280;67136;47.546;21.630;2023-09-19T08:37:00;99861.75;;;21.92;69.32
77939;BME280;67136;47.546;21.630;2023-09-19T08:40:04;99839.81;;;21.96;69.48
77939;BME280;67136;47.546;21.630;2023-09-19T08:43:08;99848.44;;;21.92;69.68
77939;BME280;67136;47.546;21.630;2023-09-19T08:46:15;99835.34;;;21.90;69.85
77939;BME280;67136;47.546;21.630;2023-09-19T08:49:34;99836.28;;;22.15;69.00
77939;BME280;67136;47.546;21.630;2023-09-19T08:52:43;99839.06;;;22.27;68.48
77939;BME280;67136;47.546;21.630;2023-09-19T08:55:49;99843.19;;;22.67;66.86
77939;BME280;67136;47.546;21.630;2023-09-19T08:58:57;99835.69;;;22.45;67.84
77939;BME280;67136;47.546;21.630;2023-09-19T09:02:02;99841.16;;;22.63;66.91
77939;BME280;67136;47.546;21.630;2023-09-19T09:05:10;99831.00;;;23.33;65.12
77939;BME280;67136;47.546;21.630;2023-09-19T09:08:13;99828.91;;;23.35;64.72
77939;BME280;67136;47.546;21.630;2023-09-19T09:11:16;99831.63;;;23.54;63.71
77939;BME280;67136;47.546;21.630;2023-09-19T09:14:20;99818.72;;;24.34;61.24
77939;BME280;67136;47.546;21.630;2023-09-19T09:17:24;99818.47;;;23.88;62.12
77939;BME280;67136;47.546;21.630;2023-09-19T09:20:27;99820.38;;;24.06;61.56
77939;BME280;67136;47.546;21.630;2023-09-19T09:23:30;99809.03;;;24.51;60.24
77939;BME280;67136;47.546;21.630;2023-09-19T09:29:41;99807.06;;;24.17;61.69
77939;BME280;67136;47.546;21.630;2023-09-19T09:32:45;99805.88;;;24.13;61.75
77939;BME280;67136;47.546;21.630;2023-09-19T09:36:07;99792.72;;;23.76;62.16
77939;BME280;67136;47.546;21.630;2023-09-19T09:39:11;99800.69;;;23.82;61.96
77939;BME280;67136;47.546;21.630;2023-09-19T09:42:35;99790.94;;;23.88;61.73
77939;BME280;67136;47.546;21.630;2023-09-19T09:45:38;99788.22;;;23.76;61.42
77939;BME280;67136;47.546;21.630;2023-09-19T09:48:41;99807.25;;;23.98;60.24
77939;BME280;67136;47.546;21.630;2023-09-19T09:51:49;99796.06;;;23.89;61.20
77939;BME280;67136;47.546;21.630;2023-09-19T09:55:03;99806.31;;;23.74;61.86
77939;BME280;67136;47.546;21.630;2023-09-19T09:58:16;99812.41;;;22.65;73.83
77939;BME280;67136;47.546;21.630;2023-09-19T10:01:21;99798.34;;;21.56;79.37
77939;BME280;67136;47.546;21.630;2023-09-19T10:04:29;99800.44;;;21.41;79.57
77939;BME280;67136;47.546;21.630;2023-09-19T10:07:39;99820.28;;;21.52;78.72
77939;BME280;67136;47.546;21.630;2023-09-19T10:10:52;99799.41;;;21.55;79.27
77939;BME280;67136;47.546;21.630;2023-09-19T10:14:06;99787.47;;;21.64;78.15
77939;BME280;67136;47.546;21.630;2023-09-19T10:17:13;99788.50;;;21.63;78.47
77939;BME280;67136;47.546;21.630;2023-09-19T10:20:22;99783.56;;;21.73;78.25
77939;BME280;67136;47.546;21.630;2023-09-19T10:23:36;99786.19;;;21.86;77.75
77939;BME280;67136;47.546;21.630;2023-09-19T10:26:40;99786.31;;;22.04;74.97
77939;BME280;67136;47.546;21.630;2023-09-19T10:29:48;99785.31;;;22.05;75.12
77939;BME280;67136;47.546;21.630;2023-09-19T10:32:59;99788.31;;;22.15;73.35
77939;BME280;67136;47.546;21.630;2023-09-19T10:36:04;99786.66;;;22.14;74.87
77939;BME280;67136;47.546;21.630;2023-09-19T10:39:08;99776.19;;;22.19;74.68
77939;BME280;67136;47.546;21.630;2023-09-19T10:42:19;99780.81;;;22.37;73.40
77939;BME280;67136;47.546;21.630;2023-09-19T10:45:23;99780.31;;;22.53;70.27
77939;BME280;67136;47.546;21.630;2023-09-19T10:48:28;99776.75;;;22.66;69.79
77939;BME280;67136;47.546;21.630;2023-09-19T10:51:39;99774.31;;;22.89;65.90
77939;BME280;67136;47.546;21.630;2023-09-19T10:54:46;99773.13;;;22.85;68.10
77939;BME280;67136;47.546;21.630;2023-09-19T10:57:53;99774.19;;;23.02;64.96
77939;BME280;67136;47.546;21.630;2023-09-19T11:00:57;99753.16;;;23.12;64.47
77939;BME280;67136;47.546;21.630;2023-09-19T11:04:40;99757.19;;;23.21;63.53
77939;BME280;67136;47.546;21.630;2023-09-19T11:07:59;99755.91;;;23.30;63.53
77939;BME280;67136;47.546;21.630;2023-09-19T11:14:42;99756.34;;;23.20;64.33
77939;BME280;67136;47.546;21.630;2023-09-19T11:17:44;99750.59;;;23.23;63.82
77939;BME280;67136;47.546;21.630;2023-09-19T11:24:34;99737.69;;;23.20;64.35
77939;BME280;67136;47.546;21.630;2023-09-19T11:31:46;99735.56;;;23.29;64.16
77939;BME280;67136;47.546;21.630;2023-09-19T11:34:50;99740.25;;;23.33;64.14
77939;BME280;67136;47.546;21.630;2023-09-19T11:41:41;99728.59;;;23.46;64.30
77939;BME280;67136;47.546;21.630;2023-09-19T11:44:44;99728.22;;;23.43;66.41
77939;BME280;67136;47.546;21.630;2023-09-19T11:47:47;99742.56;;;23.48;67.69
77939;BME280;67136;47.546;21.630;2023-09-19T11:50:50;99746.84;;;23.67;68.90
77939;BME280;67136;47.546;21.630;2023-09-19T11:53:57;99740.44;;;23.86;68.25
77939;BME280;67136;47.546;21.630;2023-09-19T11:57:03;99733.25;;;24.46;66.76
77939;BME280;67136;47.546;21.630;2023-09-19T12:00:07;99739.19;;;24.60;66.01
77939;BME280;67136;47.546;21.630;2023-09-19T12:03:13;99737.50;;;25.00;64.83
77939;BME280;67136;47.546;21.630;2023-09-19T12:06:21;99735.16;;;24.69;65.47
77939;BME280;67136;47.546;21.630;2023-09-19T12:09:25;99735.47;;;24.61;65.20
77939;BME280;67136;47.546;21.630;2023-09-19T12:12:28;99736.28;;;24.49;65.05
77939;BME280;67136;47.546;21.630;2023-09-19T12:15:32;99737.19;;;24.02;66.48
77939;BME280;67136;47.546;21.630;2023-09-19T12:18:41;99744.88;;;24.63;64.22
77939;BME280;67136;47.546;21.630;2023-09-19T12:21:54;99741.75;;;24.13;65.37
77939;BME280;67136;47.546;21.630;2023-09-19T12:25:06;99741.66;;;23.54;67.52
77939;BME280;67136;47.546;21.630;2023-09-19T12:28:09;99747.22;;;23.34;68.49
77939;BME280;67136;47.546;21.630;2023-09-19T12:31:12;99751.03;;;23.20;68.84
77939;BME280;67136;47.546;21.630;2023-09-19T12:34:18;99758.34;;;23.07;69.00
77939;BME280;67136;47.546;21.630;2023-09-19T12:37:22;99762.22;;;23.11;69.43
77939;BME280;67136;47.546;21.630;2023-09-19T12:40:25;99759.53;;;23.11;69.11
77939;BME280;67136;47.546;21.630;2023-09-19T12:43:33;99774.97;;;22.84;69.88
77939;BME280;67136;47.546;21.630;2023-09-19T12:46:36;99778.94;;;22.75;70.11
77939;BME280;67136;47.546;21.630;2023-09-19T12:50:09;99782.31;;;22.64;70.03
77939;BME280;67136;47.546;21.630;2023-09-19T12:53:27;99780.69;;;22.57;70.58
77939;BME280;67136;47.546;21.630;2023-09-19T12:56:39;99789.47;;;22.64;69.63
77939;BME280;67136;47.546;21.630;2023-09-19T12:59:43;99778.97;;;22.69;69.51
77939;BME280;67136;47.546;21.630;2023-09-19T13:06:36;99792.63;;;22.79;68.89
77939;BME280;67136;47.546;21.630;2023-09-19T13:10:02;99784.69;;;22.97;68.05
77939;BME280;67136;47.546;21.630;2023-09-19T13:13:23;99782.66;;;23.17;66.78
77939;BME280;67136;47.546;21.630;2023-09-19T13:16:30;99793.75;;;22.96;67.11
77939;BME280;67136;47.546;21.630;2023-09-19T13:22:44;99803.47;;;22.84;67.97
77939;BME280;67136;47.546;21.630;2023-09-19T13:25:50;99795.63;;;22.89;67.24
77939;BME280;67136;47.546;21.630;2023-09-19T13:28:54;99812.06;;;22.86;67.27
77939;BME280;67136;47.546;21.630;2023-09-19T13:31:57;99809.25;;;22.81;66.82
77939;BME280;67136;47.546;21.630;2023-09-19T13:35:00;99810.37;;;23.16;65.78
77939;BME280;67136;47.546;21.630;2023-09-19T13:38:02;99819.50;;;23.33;66.04
77939;BME280;67136;47.546;21.630;2023-09-19T13:41:05;99825.81;;;23.57;65.50
77939;BME280;67136;47.546;21.630;2023-09-19T13:44:08;99819.78;;;24.04;63.30
77939;BME280;67136;47.546;21.630;2023-09-19T13:47:13;99816.81;;;24.23;62.98
77939;BME280;67136;47.546;21.630;2023-09-19T13:50:17;99811.09;;;23.72;64.44
77939;BME280;67136;47.546;21.630;2023-09-19T13:53:26;99821.88;;;22.92;67.24
77939;BME280;67136;47.546;21.630;2023-09-19T13:56:30;99830.34;;;22.58;68.23
77939;BME280;67136;47.546;21.630;2023-09-19T13:59:34;99837.88;;;22.16;69.61
77939;BME280;67136;47.546;21.630;2023-09-19T14:02:37;99826.81;;;22.19;69.70
77939;BME280;67136;47.546;21.630;2023-09-19T14:05:42;99841.41;;;22.10;70.39
77939;BME280;67136;47.546;21.630;2023-09-19T14:08:44;99840.69;;;21.84;71.90
77939;BME280;67136;47.546;21.630;2023-09-19T14:11:52;99839.47;;;21.80;71.57
77939;BME280;67136;47.546;21.630;2023-09-19T14:14:55;99837.59;;;21.93;71.36
77939;BME280;67136;47.546;21.630;2023-09-19T14:17:59;99850.09;;;21.86;72.45
77939;BME280;67136;47.546;21.630;2023-09-19T14:21:07;99846.66;;;21.60;72.93
77939;BME280;67136;47.546;21.630;2023-09-19T14:24:17;99842.75;;;21.62;73.09
77939;BME280;67136;47.546;21.630;2023-09-19T14:27:20;99853.00;;;21.65;72.97
77939;BME280;67136;47.546;21.630;2023-09-19T14:30:23;99851.56;;;21.56;73.42
77939;BME280;67136;47.546;21.630;2023-09-19T14:33:26;99853.19;;;21.57;73.84
77939;BME280;67136;47.546;21.630;2023-09-19T14:36:29;99843.41;;;21.45;74.19
77939;BME280;67136;47.546;21.630;2023-09-19T14:39:32;99839.69;;;21.52;73.91
77939;BME280;67136;47.546;21.630;2023-09-19T14:42:36;99843.19;;;21.46;74.70
77939;BME280;67136;47.546;21.630;2023-09-19T14:45:40;99845.03;;;21.46;74.81
77939;BME280;67136;47.546;21.630;2023-09-19T14:48:43;99849.72;;;21.63;74.58
77939;BME280;67136;47.546;21.630;2023-09-19T14:51:46;99851.53;;;21.69;74.50
77939;BME280;67136;47.546;21.630;2023-09-19T14:54:52;99849.75;;;21.57;75.21
77939;BME280;67136;47.546;21.630;2023-09-19T14:57:55;99851.56;;;21.63;75.12
77939;BME280;67136;47.546;21.630;2023-09-19T15:01:11;99857.72;;;21.63;75.36
77939;BME280;67136;47.546;21.630;2023-09-19T15:04:14;99858.53;;;21.64;75.40
77939;BME280;67136;47.546;21.630;2023-09-19T15:07:17;99871.25;;;21.55;75.98
77939;BME280;67136;47.546;21.630;2023-09-19T15:10:20;99882.50;;;21.44;77.51
77939;BME280;67136;47.546;21.630;2023-09-19T15:13:23;99884.13;;;21.32;78.11
77939;BME280;67136;47.546;21.630;2023-09-19T15:16:26;99900.72;;;21.08;81.52
77939;BME280;67136;47.546;21.630;2023-09-19T15:19:30;99910.84;;;20.85;83.46
77939;BME280;67136;47.546;21.630;2023-09-19T15:22:33;99909.22;;;20.71;85.13
77939;BME280;67136;47.546;21.630;2023-09-19T15:25:39;99920.19;;;20.55;86.49
77939;BME280;67136;47.546;21.630;2023-09-19T15:28:43;99926.97;;;20.17;91.16
77939;BME280;67136;47.546;21.630;2023-09-19T15:31:46;99949.06;;;19.96;93.36
77939;BME280;67136;47.546;21.630;2023-09-19T15:34:49;99963.81;;;19.71;95.35
77939;BME280;67136;47.546;21.630;2023-09-19T15:37:52;99972.56;;;19.44;94.41
77939;BME280;67136;47.546;21.630;2023-09-19T15:40:55;99969.06;;;19.22;94.06
77939;BME280;67136;47.546;21.630;2023-09-19T15:44:00;99972.16;;;19.05;94.42
77939;BME280;67136;47.546;21.630;2023-09-19T15:47:04;99967.28;;;18.87;95.21
77939;BME280;67136;47.546;21.630;2023-09-19T15:50:07;99971.06;;;18.78;93.86
77939;BME280;67136;47.546;21.630;2023-09-19T15:53:12;99969.16;;;18.72;92.45
77939;BME280;67136;47.546;21.630;2023-09-19T15:56:15;99971.53;;;18.67;93.13
77939;BME280;67136;47.546;21.630;2023-09-19T15:59:18;99973.53;;;18.65;93.85
77939;BME280;67136;47.546;21.630;2023-09-19T16:02:21;99975.03;;;18.68;91.99
77939;BME280;67136;47.546;21.630;2023-09-19T16:05:24;99980.06;;;18.63;92.36
77939;BME280;67136;47.546;21.630;2023-09-19T16:08:27;100001.06;;;18.64;91.97
77939;BME280;67136;47.546;21.630;2023-09-19T16:11:32;100000.69;;;18.67;91.83
77939;BME280;67136;47.546;21.630;2023-09-19T16:14:35;100006.44;;;18.71;91.17
77939;BME280;67136;47.546;21.630;2023-09-19T16:17:38;100010.28;;;18.68;90.81
77939;BME280;67136;47.546;21.630;2023-09-19T16:20:40;100012.03;;;18.61;90.38
77939;BME280;67136;47.546;21.630;2023-09-19T16:23:47;100020.16;;;18.60;89.33
77939;BME280;67136;47.546;21.630;2023-09-19T16:26:52;100021.34;;;18.57;89.43
77939;BME280;67136;47.546;21.630;2023-09-19T16:29:55;100019.16;;;18.46;89.19
77939;BME280;67136;47.546;21.630;2023-09-19T16:32:57;100024.00;;;18.42;89.26
77939;BME280;67136;47.546;21.630;2023-09-19T16:36:00;100019.87;;;18.40;89.38
77939;BME280;67136;47.546;21.630;2023-09-19T16:39:03;100029.97;;;18.36;89.42
77939;BME280;67136;47.546;21.630;2023-09-19T16:42:07;100045.06;;;18.36;89.64
77939;BME280;67136;47.546;21.630;2023-09-19T16:45:22;100055.97;;;18.33;89.41
77939;BME280;67136;47.546;21.630;2023-09-19T16:48:26;100059.28;;;18.35;89.23